Time;durP1;ratioP1;P1;durP2;ratioP2;P2;SDS_P1;SDS_P2;PMS_P1;PMS_P2;Temp;Humidity;BMP_temperature;BMP_pressure;BME280_temperature;BME280_humidity;BME280_pressure;Samples;Min_cycle;Max_cycle;Signal;HPM_P1;HPM_P2
2022/05/03 00:01:02;;;;;;;6.85;4.90;;;14.90;80.30;;;;;;5030133;28;20111;-77
2022/05/03 00:03:30;;;;;;;7.68;5.15;;;14.90;80.30;;;;;;5032290;28;20022;-78
2022/05/03 00:06:02;;;;;;;7.07;4.97;;;14.90;80.40;;;;;;5014349;28;20032;-78
2022/05/03 00:08:32;;;;;;;6.93;4.82;;;14.90;80.40;;;;;;5015050;28;20089;-78
2022/05/03 00:11:16;;;;;;;7.00;5.30;;;14.90;80.50;;;;;;5014746;28;20022;-78
2022/05/03 00:14:23;;;;;;;6.55;4.75;;;14.80;80.40;;;;;;5014661;28;20487;-77
2022/05/03 00:16:50;;;;;;;6.72;4.93;;;14.80;80.50;;;;;;4971176;28;20033;-78
2022/05/03 00:19:16;;;;;;;6.60;4.53;;;14.80;80.50;;;;;;5005526;28;20070;-78
2022/05/03 00:21:42;;;;;;;6.70;4.80;;;14.80;80.50;;;;;;5014606;28;20419;-78
2022/05/03 00:24:08;;;;;;;7.18;4.97;;;14.80;80.60;;;;;;5031685;28;20044;-78
2022/05/03 00:26:34;;;;;;;7.65;4.97;;;14.80;80.60;;;;;;5014210;28;20052;-78
2022/05/03 00:29:00;;;;;;;6.78;4.88;;;14.80;80.60;;;;;;5032082;28;20031;-78
2022/05/03 00:31:27;;;;;;;6.72;4.95;;;14.80;80.60;;;;;;5014638;28;20022;-78
2022/05/03 00:33:54;;;;;;;7.03;5.30;;;14.80;80.60;;;;;;5032114;28;20030;-78
2022/05/03 00:36:21;;;;;;;6.50;4.85;;;14.80;80.60;;;;;;5025134;28;20040;-78
2022/05/03 00:38:47;;;;;;;6.97;4.95;;;14.80;80.60;;;;;;5023284;28;20029;-77
2022/05/03 00:41:27;;;;;;;6.97;4.97;;;14.80;80.60;;;;;;5032550;28;20033;-78
2022/05/03 00:44:04;;;;;;;6.25;4.65;;;14.80;80.70;;;;;;5022246;28;20040;-76
2022/05/03 00:46:37;;;;;;;7.38;4.70;;;14.80;80.60;;;;;;5017568;28;20037;-78
2022/05/03 00:49:25;;;;;;;7.13;4.97;;;14.90;80.60;;;;;;5035566;28;20410;-77
2022/05/03 00:52:12;;;;;;;6.53;4.75;;;14.90;80.40;;;;;;5035430;28;20030;-78
2022/05/03 00:55:02;;;;;;;6.40;4.50;;;14.90;80.20;;;;;;5035430;28;20033;-78
2022/05/03 00:58:09;;;;;;;6.57;4.80;;;14.90;80.10;;;;;;5034141;28;20060;-78
2022/05/03 01:00:48;;;;;;;6.45;4.75;;;14.90;79.90;;;;;;5015432;28;20034;-78
2022/05/03 01:03:20;;;;;;;6.35;4.43;;;15.00;80.00;;;;;;5014381;28;20498;-78
2022/05/03 01:05:59;;;;;;;6.90;4.60;;;14.90;80.00;;;;;;5014015;28;20037;-78
2022/05/03 01:08:39;;;;;;;6.68;4.75;;;14.90;80.10;;;;;;5014190;28;20470;-78
2022/05/03 01:11:33;;;;;;;6.70;4.70;;;14.90;80.20;;;;;;5014176;28;20048;-78
2022/05/03 01:14:10;;;;;;;6.30;4.53;;;14.90;80.30;;;;;;5015987;28;20106;-78
2022/05/03 01:16:49;;;;;;;6.88;4.80;;;14.80;80.30;;;;;;5043365;28;20030;-78
2022/05/03 01:20:03;;;;;;;5.95;4.25;;;14.80;80.50;;;;;;5027474;28;20029;-78
2022/05/03 01:22:53;;;;;;;8.27;5.22;;;14.80;80.50;;;;;;5013158;28;20041;-78
2022/05/03 01:25:44;;;;;;;7.28;5.05;;;14.80;80.60;;;;;;5017157;28;20025;-76
2022/05/03 01:28:28;;;;;;;6.70;4.75;;;14.80;80.60;;;;;;5017513;28;20040;-78
2022/05/03 01:30:57;;;;;;;6.65;4.80;;;14.80;80.70;;;;;;5017415;28;20432;-79
2022/05/03 01:33:36;;;;;;;6.90;4.82;;;14.80;80.70;;;;;;5017270;28;20025;-78
2022/05/03 01:36:05;;;;;;;6.88;4.97;;;14.80;80.60;;;;;;5022726;28;20029;-79
2022/05/03 01:38:34;;;;;;;6.80;4.72;;;14.80;80.70;;;;;;5035270;28;20025;-78
2022/05/03 01:41:22;;;;;;;6.82;4.95;;;14.80;80.70;;;;;;5035378;28;20032;-78
2022/05/03 01:44:08;;;;;;;6.78;4.88;;;14.80;80.70;;;;;;5020029;28;20045;-79
2022/05/03 01:46:38;;;;;;;6.38;4.70;;;14.80;80.60;;;;;;4996533;28;20058;-78
2022/05/03 01:52:07;;;;;;;7.15;4.97;;;14.80;80.60;;;;;;5027291;28;20072;-78
2022/05/03 01:54:58;;;;;;;6.70;4.78;;;14.80;80.70;;;;;;5034867;28;20132;-77
2022/05/03 01:57:30;;;;;;;;;;;14.80;80.70;;;;;;5033722;28;20049;-78
2022/05/03 02:00:02;;;;;;;6.10;4.10;;;14.80;80.70;;;;;;5033032;28;19905;-78
2022/05/03 02:02:40;;;;;;;6.40;4.57;;;14.80;80.60;;;;;;5013457;28;20021;-78
2022/05/03 02:05:07;;;;;;;7.45;5.00;;;14.80;80.60;;;;;;5014382;28;20030;-78
2022/05/03 02:07:54;;;;;;;6.13;4.28;;;14.80;80.50;;;;;;4997002;28;20037;-78
2022/05/03 02:10:44;;;;;;;6.05;4.25;;;14.90;80.40;;;;;;5013164;28;20026;-78
2022/05/03 02:13:25;;;;;;;6.20;4.00;;;14.90;80.20;;;;;;5025405;28;20041;-78
2022/05/03 02:15:56;;;;;;;6.35;4.15;;;14.90;80.10;;;;;;5032342;28;20084;-78
2022/05/03 02:18:35;;;;;;;6.00;4.10;;;14.90;80.00;;;;;;5034327;28;20029;-78
2022/05/03 02:21:25;;;;;;;6.10;4.15;;;14.90;79.90;;;;;;5033028;28;20091;-78
2022/05/03 02:24:13;;;;;;;6.22;4.57;;;14.90;80.00;;;;;;5033730;28;20100;-78
2022/05/03 02:26:54;;;;;;;6.65;4.30;;;14.90;80.60;;;;;;5033816;28;20035;-78
2022/05/03 02:29:30;;;;;;;6.03;4.18;;;14.90;80.10;;;;;;5034037;28;20215;-78
2022/05/03 02:32:03;;;;;;;6.55;4.10;;;14.80;80.20;;;;;;5016420;28;20032;-79
2022/05/03 02:34:43;;;;;;;6.05;4.07;;;14.80;80.30;;;;;;5025162;28;20037;-79
2022/05/03 02:37:14;;;;;;;6.07;4.15;;;14.80;80.50;;;;;;5032687;28;20382;-79
2022/05/03 02:40:11;;;;;;;6.47;4.13;;;14.80;80.60;;;;;;5032605;28;20026;-78
2022/05/03 02:42:37;;;;;;;6.22;4.25;;;14.80;80.70;;;;;;5031257;28;20276;-78
2022/05/03 02:45:05;;;;;;;6.40;4.35;;;14.80;80.70;;;;;;5033531;28;20036;-78
2022/05/03 02:47:42;;;;;;;5.70;3.80;;;14.70;80.50;;;;;;5033331;28;20029;-78
2022/05/03 02:50:16;;;;;;;6.18;4.40;;;14.80;80.80;;;;;;5033413;28;20044;-78
2022/05/03 02:52:41;;;;;;;6.28;4.20;;;14.70;80.70;;;;;;5033592;28;20033;-78
2022/05/03 02:55:20;;;;;;;5.88;4.07;;;14.70;80.70;;;;;;5033127;28;20459;-78
2022/05/03 02:58:04;;;;;;;7.05;4.07;;;14.70;80.70;;;;;;5015093;28;20029;-78
2022/05/03 03:03:49;;;;;;;5.65;3.97;;;14.70;80.70;;;;;;5033335;28;20589;-77
2022/05/03 03:06:25;;;;;;;6.10;4.10;;;14.70;80.70;;;;;;5026306;28;20469;-78
2022/05/03 03:08:54;;;;;;;6.88;4.30;;;14.70;80.70;;;;;;5011975;28;20033;-78
2022/05/03 03:11:53;;;;;;;5.75;3.67;;;14.70;80.70;;;;;;5013285;28;20452;-77
2022/05/03 03:14:42;;;;;;;6.10;4.05;;;14.70;80.70;;;;;;5009615;28;20034;-77
2022/05/03 03:17:10;;;;;;;5.47;3.83;;;14.70;80.70;;;;;;5013284;28;20033;-77
2022/05/03 03:20:20;;;;;;;6.05;4.10;;;14.70;80.70;;;;;;5016565;28;20025;-78
2022/05/03 03:22:47;;;;;;;5.80;3.88;;;14.70;80.70;;;;;;4955745;28;20033;-79
2022/05/03 03:25:18;;;;;;;5.95;4.13;;;14.70;80.60;;;;;;5020120;28;20041;-77
2022/05/03 03:27:45;;;;;;;5.50;3.60;;;14.80;80.60;;;;;;5032750;28;20040;-78
2022/05/03 03:33:34;;;;;;;5.20;3.40;;;14.80;80.30;;;;;;5029970;28;20045;-78
2022/05/03 03:36:03;;;;;;;5.88;3.80;;;14.90;80.20;;;;;;5014602;28;20035;-78
2022/05/03 03:38:37;;;;;;;5.63;3.78;;;14.90;80.10;;;;;;5033208;28;20018;-78
2022/05/03 03:41:03;;;;;;;6.00;3.50;;;14.90;80.20;;;;;;5015494;28;20032;-77
2022/05/03 03:43:29;;;;;;;6.32;3.83;;;14.90;80.20;;;;;;5033344;28;20037;-79
2022/05/03 03:45:54;;;;;;;5.70;3.70;;;14.80;80.20;;;;;;5015196;28;20022;-79
2022/05/03 03:48:20;;;;;;;5.68;3.97;;;14.80;80.30;;;;;;5014612;28;20459;-79
2022/05/03 03:50:47;;;;;;;5.25;3.45;;;14.80;80.40;;;;;;5022397;28;20021;-80
2022/05/03 03:53:14;;;;;;;5.63;3.60;;;14.70;80.40;;;;;;5031557;28;20106;-78
2022/05/03 03:55:41;;;;;;;5.55;3.60;;;14.70;80.50;;;;;;5024217;28;20079;-78
2022/05/03 03:58:07;;;;;;;5.93;3.85;;;14.70;80.60;;;;;;5033114;28;20033;-78
2022/05/03 04:00:33;;;;;;;7.03;3.70;;;14.70;80.60;;;;;;5014915;28;20030;-78
2022/05/03 04:03:00;;;;;;;5.90;3.90;;;14.70;80.60;;;;;;5014979;28;20502;-78
2022/05/03 04:05:27;;;;;;;5.20;3.25;;;14.70;80.70;;;;;;5031974;28;20116;-78
2022/05/03 04:07:52;;;;;;;5.53;3.70;;;14.70;80.70;;;;;;5032885;28;20032;-78
2022/05/03 04:10:18;;;;;;;5.70;3.60;;;14.70;80.80;;;;;;5033216;28;20021;-78
2022/05/03 04:12:44;;;;;;;5.07;3.28;;;14.70;80.80;;;;;;5018102;28;20026;-78
2022/05/03 04:15:11;;;;;;;5.85;3.78;;;14.70;80.70;;;;;;5034782;28;20033;-78
2022/05/03 04:17:36;;;;;;;5.20;3.50;;;14.70;80.60;;;;;;5018790;28;20475;-78
2022/05/03 04:20:02;;;;;;;5.15;3.25;;;14.60;80.60;;;;;;5018716;28;20033;-78
2022/05/03 04:22:33;;;;;;;5.40;3.47;;;14.70;80.70;;;;;;5018831;28;20447;-78
2022/05/03 04:25:00;;;;;;;5.80;3.83;;;14.70;80.70;;;;;;5031118;28;20034;-79
2022/05/03 04:27:29;;;;;;;6.10;3.70;;;14.70;80.60;;;;;;5025502;28;20022;-78
2022/05/03 04:29:56;;;;;;;5.28;3.40;;;14.70;80.70;;;;;;5036454;28;20025;-78
2022/05/03 04:32:22;;;;;;;5.95;3.75;;;14.70;80.60;;;;;;5018571;28;20022;-79
2022/05/03 04:34:48;;;;;;;5.15;3.35;;;14.60;80.50;;;;;;5035992;28;20033;-78
2022/05/03 04:37:14;;;;;;;5.38;3.45;;;14.70;80.90;;;;;;5017913;28;20479;-79
2022/05/03 04:39:40;;;;;;;5.72;3.47;;;14.70;80.60;;;;;;5034240;28;20108;-78
2022/05/03 04:42:06;;;;;;;6.15;3.83;;;14.70;80.60;;;;;;5019044;28;20105;-78
2022/05/03 04:44:32;;;;;;;5.50;3.50;;;14.70;80.50;;;;;;5006612;28;20509;-78
2022/05/03 04:46:58;;;;;;;4.97;3.25;;;14.80;80.40;;;;;;5035339;28;20026;-79
2022/05/03 04:49:23;;;;;;;5.30;3.20;;;14.80;80.20;;;;;;5025787;28;20419;-78
2022/05/03 04:51:49;;;;;;;10.68;3.72;;;14.80;80.10;;;;;;5009729;28;20537;-78
2022/05/03 04:54:15;;;;;;;7.75;3.50;;;14.80;79.60;;;;;;5023076;28;20372;-80
2022/05/03 04:56:49;;;;;;;7.28;3.35;;;14.80;79.40;;;;;;5018020;28;20039;-78
2022/05/03 04:59:14;;;;;;;7.35;3.78;;;14.90;79.60;;;;;;5014875;28;20035;-78
2022/05/03 05:01:39;;;;;;;5.13;3.17;;;14.80;79.60;;;;;;5032361;28;20100;-77
2022/05/03 05:04:05;;;;;;;5.55;3.17;;;14.80;79.70;;;;;;5014509;28;20074;-78
2022/05/03 05:06:30;;;;;;;5.55;3.38;;;14.80;80.00;;;;;;5033275;28;20490;-78
2022/05/03 05:08:56;;;;;;;7.15;3.80;;;14.80;80.10;;;;;;5034150;28;20038;-77
2022/05/03 05:11:22;;;;;;;7.30;3.50;;;14.70;79.90;;;;;;5031562;28;20025;-77
2022/05/03 05:13:47;;;;;;;5.70;3.50;;;14.70;80.10;;;;;;5028534;28;20522;-79
2022/05/03 05:16:13;;;;;;;6.43;3.17;;;14.70;80.00;;;;;;5015290;28;20032;-79
2022/05/03 05:18:38;;;;;;;7.38;3.30;;;14.70;80.10;;;;;;5028950;28;20386;-78
2022/05/03 05:21:04;;;;;;;7.97;3.47;;;14.70;79.90;;;;;;5030562;28;20487;-78
2022/05/03 05:23:30;;;;;;;7.05;3.50;;;14.70;79.80;;;;;;5033868;28;20042;-78
2022/05/03 05:25:55;;;;;;;5.90;3.38;;;14.70;79.70;;;;;;5017095;28;20055;-77
2022/05/03 05:28:23;;;;;;;6.38;3.15;;;14.70;79.60;;;;;;5018340;28;20020;-77
2022/05/03 05:30:50;;;;;;;5.35;3.15;;;14.80;79.70;;;;;;5017351;28;20042;-78
2022/05/03 05:33:15;;;;;;;6.18;3.03;;;14.70;79.70;;;;;;5017861;28;20071;-78
2022/05/03 05:35:41;;;;;;;5.82;3.22;;;14.70;79.60;;;;;;5035797;28;20471;-78
2022/05/03 05:38:06;;;;;;;5.68;2.90;;;14.70;79.60;;;;;;5034571;28;20033;-78
2022/05/03 05:40:32;;;;;;;5.97;3.10;;;14.70;79.60;;;;;;5017171;28;20021;-78
2022/05/03 05:43:00;;;;;;;5.50;2.88;;;14.70;79.50;;;;;;5033979;28;20040;-78
2022/05/03 05:45:26;;;;;;;5.85;3.00;;;14.70;79.50;;;;;;5034047;28;20048;-78
2022/05/03 05:47:51;;;;;;;6.40;3.42;;;14.70;79.50;;;;;;5016077;28;20025;-79
2022/05/03 05:50:17;;;;;;;5.13;3.13;;;14.70;79.50;;;;;;5016476;28;20079;-77
2022/05/03 05:55:27;;;;;;;6.15;3.10;;;14.70;79.40;;;;;;5034371;28;20059;-78
2022/05/03 05:57:53;;;;;;;5.85;3.00;;;14.80;79.50;;;;;;5016814;28;20120;-79
2022/05/03 06:00:19;;;;;;;4.88;2.80;;;14.80;79.40;;;;;;5016333;28;20105;-79
2022/05/03 06:02:44;;;;;;;6.30;3.15;;;14.80;79.20;;;;;;5034182;28;20107;-77
2022/05/03 06:05:10;;;;;;;6.85;2.95;;;14.90;79.20;;;;;;5016151;28;20030;-77
2022/05/03 06:07:35;;;;;;;6.07;2.90;;;14.90;79.10;;;;;;5033989;28;20018;-77
2022/05/03 06:10:01;;;;;;;6.30;3.13;;;14.90;78.90;;;;;;5034165;28;20471;-78
2022/05/03 06:12:26;;;;;;;5.10;2.90;;;14.90;78.70;;;;;;5034171;28;20041;-77
2022/05/03 06:14:52;;;;;;;5.88;3.53;;;15.00;78.70;;;;;;5015984;28;20051;-77
2022/05/03 06:17:18;;;;;;;4.80;3.03;;;15.00;78.50;;;;;;5016247;28;20036;-77
2022/05/03 06:19:44;;;;;;;5.20;3.00;;;14.90;78.50;;;;;;5035347;28;20025;-77
2022/05/03 06:22:10;;;;;;;6.97;3.10;;;14.90;78.60;;;;;;5016115;28;20036;-77
2022/05/03 06:24:35;;;;;;;4.97;2.70;;;14.90;78.60;;;;;;5033543;28;20029;-77
2022/05/03 06:27:01;;;;;;;5.50;3.00;;;15.00;78.70;;;;;;5015850;28;20025;-77
2022/05/03 06:29:26;;;;;;;6.05;3.28;;;14.90;78.70;;;;;;5016085;28;20025;-78
2022/05/03 06:31:52;;;;;;;6.18;3.08;;;14.90;78.70;;;;;;5016024;28;20017;-78
2022/05/03 06:34:18;;;;;;;6.25;2.83;;;14.90;78.70;;;;;;5015685;28;20398;-77
2022/05/03 06:36:45;;;;;;;6.05;3.30;;;14.90;78.70;;;;;;5015289;28;20530;-74
2022/05/03 06:39:11;;;;;;;4.88;2.65;;;14.90;78.50;;;;;;5016369;28;20026;-77
2022/05/03 06:41:37;;;;;;;5.35;3.08;;;14.90;78.20;;;;;;5033351;28;20041;-77
2022/05/03 06:44:03;;;;;;;6.78;2.83;;;15.00;78.40;;;;;;5015863;28;20030;-77
2022/05/03 06:46:28;;;;;;;6.07;3.38;;;15.00;78.50;;;;;;5032894;28;20053;-77
2022/05/03 06:48:55;;;;;;;5.20;2.95;;;15.00;78.40;;;;;;5015447;28;20052;-77
2022/05/03 06:51:21;;;;;;;5.25;2.63;;;14.90;78.30;;;;;;5015461;28;20075;-77
2022/05/03 06:53:47;;;;;;;5.28;2.78;;;15.00;78.30;;;;;;5033373;28;20029;-78
2022/05/03 06:56:13;;;;;;;4.32;2.63;;;15.00;78.30;;;;;;5015519;28;20025;-78
2022/05/03 06:58:39;;;;;;;6.07;2.67;;;15.00;78.20;;;;;;5015854;28;20048;-77
2022/05/03 07:01:09;;;;;;;6.40;3.10;;;15.10;78.20;;;;;;5015519;28;20029;-77
2022/05/03 07:03:35;;;;;;;5.68;2.75;;;15.10;78.20;;;;;;5031820;28;20465;-77
2022/05/03 07:06:00;;;;;;;5.63;3.08;;;15.10;78.10;;;;;;5014986;28;20514;-78
2022/05/03 07:08:26;;;;;;;4.45;2.67;;;15.10;78.10;;;;;;5033156;28;20061;-77
2022/05/03 07:10:51;;;;;;;4.45;2.70;;;15.10;78.00;;;;;;5015104;28;20021;-77
2022/05/03 07:13:23;;;;;;;6.07;2.67;;;15.20;78.00;;;;;;5015169;28;20044;-77
2022/05/03 07:15:49;;;;;;;5.35;2.83;;;15.20;77.80;;;;;;5014617;28;20395;-77
2022/05/03 07:23:43;;;;;;;4.72;2.45;;;15.30;77.80;;;;;;5033077;28;20032;-77
2022/05/03 07:26:08;;;;;;;4.15;2.50;;;15.30;77.10;;;;;;5032395;28;20025;-77
2022/05/03 07:28:34;;;;;;;4.90;2.60;;;15.30;77.00;;;;;;5015175;28;20403;-77
2022/05/03 07:30:59;;;;;;;5.72;2.70;;;15.40;76.80;;;;;;5033241;28;20053;-79
2022/05/03 07:33:24;;;;;;;4.72;2.60;;;15.40;76.70;;;;;;5015252;28;20071;-77
2022/05/03 07:35:50;;;;;;;4.70;2.80;;;15.40;76.60;;;;;;5014874;28;20467;-77
2022/05/03 07:38:15;;;;;;;5.50;2.90;;;15.40;76.60;;;;;;5032929;28;20025;-77
2022/05/03 07:40:41;;;;;;;5.60;2.65;;;15.40;76.60;;;;;;5015350;28;20075;-77
2022/05/03 07:43:06;;;;;;;5.82;2.60;;;15.40;76.20;;;;;;5032500;28;20021;-77
2022/05/03 07:45:32;;;;;;;4.95;2.40;;;15.40;76.40;;;;;;5017356;28;20399;-79
2022/05/03 07:47:57;;;;;;;4.43;2.30;;;15.40;76.60;;;;;;5018585;28;20029;-77
2022/05/03 07:50:23;;;;;;;4.30;2.25;;;15.40;76.50;;;;;;5027467;28;20029;-78
2022/05/03 07:52:48;;;;;;;4.93;2.40;;;15.40;77.00;;;;;;5035352;28;20022;-78
2022/05/03 07:55:14;;;;;;;4.47;2.40;;;15.40;76.60;;;;;;5036596;28;20030;-78
2022/05/03 07:57:39;;;;;;;4.40;2.50;;;15.40;76.80;;;;;;5035376;28;20030;-78
2022/05/03 08:00:06;;;;;;;3.92;2.38;;;15.40;76.80;;;;;;5051895;28;20021;-77
2022/05/03 08:02:32;;;;;;;4.32;2.35;;;15.40;76.80;;;;;;5036526;28;20033;-78
2022/05/03 08:04:58;;;;;;;4.90;2.50;;;15.50;76.80;;;;;;5034948;28;20052;-79
2022/05/03 08:07:23;;;;;;;4.20;2.20;;;15.40;76.70;;;;;;5034936;28;20025;-77
2022/05/03 08:09:49;;;;;;;4.63;2.33;;;15.50;76.70;;;;;;5051744;28;20641;-77
2022/05/03 08:12:15;;;;;;;5.18;2.70;;;15.50;76.60;;;;;;5035029;28;20025;-77
2022/05/03 08:14:41;;;;;;;5.15;2.63;;;15.50;77.10;;;;;;5034732;28;20045;-77
2022/05/03 08:17:07;;;;;;;3.90;2.20;;;15.50;76.60;;;;;;5036130;28;20025;-77
2022/05/03 08:19:33;;;;;;;4.30;2.50;;;15.40;76.50;;;;;;5036189;28;20024;-77
2022/05/03 08:21:59;;;;;;;3.85;2.40;;;15.60;76.50;;;;;;5034908;28;20048;-78
2022/05/03 08:24:24;;;;;;;4.25;2.22;;;15.60;76.50;;;;;;5036039;28;20098;-77
2022/05/03 08:26:50;;;;;;;4.40;2.33;;;15.50;76.30;;;;;;5034509;28;20120;-77
2022/05/03 08:29:16;;;;;;;4.13;2.47;;;15.60;76.30;;;;;;5051368;28;20013;-77
2022/05/03 08:31:42;;;;;;;4.20;2.45;;;15.60;76.20;;;;;;5034798;28;20013;-77
2022/05/03 08:34:08;;;;;;;4.38;2.40;;;15.60;76.20;;;;;;5036209;28;20112;-78
2022/05/03 08:36:34;;;;;;;3.80;2.35;;;15.60;76.10;;;;;;5050992;28;20032;-77
2022/05/03 08:42:05;;;;;;;4.10;2.50;;;15.70;75.90;;;;;;5035932;28;20031;-78
2022/05/03 08:44:32;;;;;;;3.38;2.30;;;15.80;75.80;;;;;;5035541;28;20025;-77
2022/05/03 08:46:59;;;;;;;4.80;2.53;;;15.80;75.60;;;;;;5034953;28;20025;-77
2022/05/03 08:49:36;;;;;;;5.28;2.25;;;15.80;75.50;;;;;;5034152;28;20040;-77
2022/05/03 08:52:02;;;;;;;4.15;2.42;;;15.80;75.30;;;;;;5035775;28;20017;-77
2022/05/03 08:54:28;;;;;;;4.53;2.65;;;15.80;75.20;;;;;;5034342;28;20021;-78
2022/05/03 08:56:55;;;;;;;4.10;2.40;;;15.90;75.20;;;;;;5050670;28;20036;-77
2022/05/03 08:59:22;;;;;;;4.43;2.40;;;15.80;75.40;;;;;;5034182;28;20033;-79
2022/05/03 09:01:48;;;;;;;4.28;2.20;;;15.80;75.40;;;;;;5033912;28;20026;-77
2022/05/03 09:04:14;;;;;;;4.05;2.30;;;15.80;75.50;;;;;;5033955;28;20517;-77
2022/05/03 09:06:45;;;;;;;3.78;2.30;;;15.80;75.50;;;;;;5050264;28;20233;-77
2022/05/03 09:09:12;;;;;;;4.07;2.20;;;15.90;75.60;;;;;;5035192;28;20022;-77
2022/05/03 09:11:46;;;;;;;4.43;2.30;;;15.90;75.50;;;;;;5050514;28;20089;-78
2022/05/03 09:14:13;;;;;;;3.53;2.30;;;15.90;75.50;;;;;;5050461;28;20124;-78
2022/05/03 09:16:49;;;;;;;4.05;2.30;;;15.80;75.40;;;;;;5033478;28;20056;-77
2022/05/03 09:19:25;;;;;;;3.88;2.28;;;15.90;75.40;;;;;;5033823;28;20021;-77
2022/05/03 09:24:55;;;;;;;4.03;2.35;;;15.90;75.40;;;;;;5034815;28;20091;-77
2022/05/03 09:27:22;;;;;;;4.00;2.20;;;15.90;75.30;;;;;;5033746;28;20032;-77
2022/05/03 09:30:04;;;;;;;3.75;2.17;;;15.90;75.30;;;;;;5034816;28;20028;-77
2022/05/03 09:32:34;;;;;;;4.20;2.45;;;16.00;75.40;;;;;;5050097;28;20368;-78
2022/05/03 09:35:00;;;;;;;3.63;2.10;;;16.00;75.30;;;;;;5033253;28;20522;-77
2022/05/03 09:37:41;;;;;;;3.45;2.10;;;16.00;75.10;;;;;;5050014;28;20037;-78
2022/05/03 09:40:08;;;;;;;4.43;2.22;;;16.00;75.10;;;;;;5034940;28;20048;-77
2022/05/03 09:42:40;;;;;;;4.65;2.08;;;16.00;75.10;;;;;;5034637;28;20049;-78
2022/05/03 09:45:08;;;;;;;3.97;2.20;;;16.00;75.10;;;;;;5050011;28;20033;-78
2022/05/03 09:47:56;;;;;;;3.58;2.10;;;16.00;75.00;;;;;;5034052;28;20021;-77
2022/05/03 09:50:33;;;;;;;4.55;2.42;;;16.00;74.90;;;;;;5033528;28;20067;-77
2022/05/03 09:53:28;;;;;;;4.00;2.13;;;16.10;74.90;;;;;;5049858;28;20021;-77
2022/05/03 09:55:53;;;;;;;4.22;2.10;;;16.10;74.90;;;;;;5032747;28;20037;-77
2022/05/03 09:58:19;;;;;;;3.58;2.17;;;16.10;74.80;;;;;;5034472;28;20021;-77
2022/05/03 10:00:48;;;;;;;4.60;2.38;;;16.20;74.70;;;;;;5034271;28;20029;-77
2022/05/03 10:03:13;;;;;;;3.70;2.22;;;16.20;74.60;;;;;;5049938;28;20072;-77
2022/05/03 10:05:41;;;;;;;3.70;2.08;;;16.20;74.40;;;;;;5032766;28;20092;-78
2022/05/03 10:08:10;;;;;;;3.95;2.10;;;16.20;74.30;;;;;;5033684;28;20014;-77
2022/05/03 10:10:38;;;;;;;4.13;2.22;;;16.20;74.30;;;;;;5033011;28;20026;-77
2022/05/03 10:13:04;;;;;;;3.58;1.98;;;16.20;74.40;;;;;;5033007;28;20085;-77
2022/05/03 10:21:14;;;;;;;3.17;2.03;;;16.10;74.80;;;;;;5034478;28;20048;-77
2022/05/03 10:23:39;;;;;;;3.88;2.17;;;16.20;74.80;;;;;;5034071;28;20025;-77
2022/05/03 10:26:08;;;;;;;3.45;2.10;;;16.20;74.80;;;;;;5033885;28;20440;-77
2022/05/03 10:29:00;;;;;;;3.22;2.00;;;16.10;74.80;;;;;;5032773;28;20108;-77
2022/05/03 10:31:26;;;;;;;4.53;2.30;;;16.10;74.80;;;;;;5049059;28;20014;-77
2022/05/03 10:33:52;;;;;;;4.45;2.35;;;16.10;74.90;;;;;;5032526;28;20013;-77
2022/05/03 10:36:40;;;;;;;4.03;2.15;;;16.10;74.80;;;;;;5033659;28;20413;-77
2022/05/03 10:39:18;;;;;;;3.10;1.95;;;16.10;74.90;;;;;;5033863;28;20034;-77
2022/05/03 10:42:10;;;;;;;3.33;2.10;;;16.10;74.90;;;;;;5033479;28;20059;-77
2022/05/03 10:44:44;;;;;;;4.22;2.20;;;16.10;74.90;;;;;;5033150;28;20087;-77
2022/05/03 10:47:12;;;;;;;3.90;2.15;;;16.20;75.00;;;;;;5048352;28;20045;-77
2022/05/03 10:50:21;;;;;;;4.28;2.33;;;16.10;74.90;;;;;;5031828;28;20116;-77
2022/05/03 10:52:55;;;;;;;4.43;2.25;;;16.10;74.90;;;;;;5048533;28;20382;-77
2022/05/03 10:55:22;;;;;;;3.53;2.13;;;16.10;74.90;;;;;;5033138;28;20045;-77
2022/05/03 10:58:16;;;;;;;3.83;2.10;;;16.10;75.00;;;;;;5032121;28;20379;-77
2022/05/03 11:01:08;;;;;;;4.82;2.50;;;16.10;74.90;;;;;;5033031;28;20017;-77
2022/05/03 11:03:39;;;;;;;3.50;2.05;;;16.10;75.00;;;;;;5033018;28;20022;-79
2022/05/03 11:06:18;;;;;;;3.33;2.00;;;16.10;75.10;;;;;;5048061;28;20025;-78
2022/05/03 11:09:08;;;;;;;5.03;2.50;;;16.10;75.10;;;;;;5048203;28;20032;-79
2022/05/03 11:11:40;;;;;;;4.13;2.28;;;16.20;75.00;;;;;;5048222;28;20044;-77
2022/05/03 11:14:21;;;;;;;3.42;1.98;;;16.20;74.90;;;;;;5048336;28;20056;-77
2022/05/03 11:16:50;;;;;;;4.55;2.50;;;16.20;74.80;;;;;;5032672;28;20055;-77
2022/05/03 11:19:18;;;;;;;4.13;2.20;;;16.20;74.70;;;;;;5032064;28;20538;-77
2022/05/03 11:21:45;;;;;;;4.28;2.28;;;16.30;74.60;;;;;;5032809;28;20030;-77
2022/05/03 11:24:20;;;;;;;3.63;2.00;;;16.20;74.40;;;;;;5031650;28;20170;-77
2022/05/03 11:26:47;;;;;;;3.92;2.40;;;16.20;74.40;;;;;;5032602;28;20021;-77
2022/05/03 11:29:13;;;;;;;4.13;2.25;;;16.20;74.80;;;;;;5032701;28;20112;-78
2022/05/03 11:31:48;;;;;;;4.60;2.40;;;16.20;74.90;;;;;;5032528;28;20513;-77
2022/05/03 11:34:14;;;;;;;4.03;2.30;;;16.10;75.00;;;;;;5031287;28;20116;-78
2022/05/03 11:36:46;;;;;;;3.42;2.13;;;16.10;75.20;;;;;;5031160;28;20622;-78
2022/05/03 11:39:12;;;;;;;4.05;2.22;;;16.10;75.20;;;;;;5032517;28;20013;-77
2022/05/03 11:41:38;;;;;;;3.72;2.10;;;16.10;75.40;;;;;;5032513;28;20056;-79
2022/05/03 11:44:04;;;;;;;4.25;2.25;;;16.00;75.40;;;;;;5047980;28;20021;-77
2022/05/03 11:46:30;;;;;;;4.20;2.20;;;16.00;75.40;;;;;;5030851;28;20108;-77
2022/05/03 11:49:01;;;;;;;4.05;2.22;;;16.00;75.50;;;;;;5030391;28;20479;-77
2022/05/03 11:57:06;;;;;;;4.10;2.40;;;16.10;75.60;;;;;;5032595;28;20033;-77
2022/05/03 11:59:32;;;;;;;3.70;2.20;;;16.00;75.60;;;;;;5032676;28;20018;-79
2022/05/03 12:02:20;;;;;;;4.95;2.53;;;16.00;75.60;;;;;;5048398;28;20026;-83
2022/05/03 12:05:04;;;;;;;4.22;2.50;;;16.00;75.60;;;;;;5047894;28;20478;-78
2022/05/03 12:07:38;;;;;;;4.55;2.40;;;16.00;75.70;;;;;;5033211;28;20041;-77
2022/05/03 12:10:21;;;;;;;4.57;2.40;;;16.00;75.80;;;;;;5033851;28;20022;-78
2022/05/03 12:13:02;;;;;;;4.43;2.40;;;16.00;75.70;;;;;;5033814;28;20374;-78
2022/05/03 12:15:28;;;;;;;3.60;2.08;;;16.00;75.70;;;;;;5033376;28;20533;-78
2022/05/03 12:17:59;;;;;;;4.57;2.53;;;16.00;75.80;;;;;;5032033;28;20029;-78
2022/05/03 12:20:26;;;;;;;4.95;2.85;;;16.00;75.80;;;;;;5034618;28;20059;-78
2022/05/03 12:23:13;;;;;;;4.85;2.40;;;16.00;75.80;;;;;;5032292;28;20052;-78
2022/05/03 12:25:39;;;;;;;4.55;2.60;;;16.00;75.60;;;;;;5048392;28;20035;-78
2022/05/03 12:28:05;;;;;;;3.60;2.03;;;16.10;75.50;;;;;;5031686;28;20021;-78
2022/05/03 12:30:32;;;;;;;4.20;2.20;;;16.10;75.30;;;;;;5032988;28;20407;-78
2022/05/03 12:33:02;;;;;;;4.80;2.65;;;16.10;75.20;;;;;;5035440;28;20108;-78
2022/05/03 12:35:32;;;;;;;4.10;2.38;;;16.10;75.10;;;;;;5035344;28;20022;-79
2022/05/03 12:38:06;;;;;;;4.30;2.40;;;16.10;75.10;;;;;;5036963;28;20021;-78
2022/05/03 12:40:33;;;;;;;4.18;2.60;;;16.10;75.00;;;;;;5037004;28;20124;-78
2022/05/03 12:43:09;;;;;;;4.20;2.40;;;16.00;75.00;;;;;;5035247;28;20028;-79
2022/05/03 12:45:35;;;;;;;4.47;2.55;;;16.00;75.40;;;;;;5036332;28;20021;-79
2022/05/03 12:48:00;;;;;;;4.07;2.30;;;15.90;75.60;;;;;;5034729;28;20018;-79
2022/05/03 12:50:26;;;;;;;4.05;2.30;;;15.90;75.70;;;;;;5036775;28;20164;-79
2022/05/03 12:52:51;;;;;;;5.00;2.63;;;15.90;76.00;;;;;;5036020;28;20409;-77
2022/05/03 12:55:19;;;;;;;4.55;2.80;;;15.90;76.10;;;;;;5036977;28;20022;-80
2022/05/03 13:00:32;;;;;;;4.55;2.50;;;15.80;76.30;;;;;;5036873;28;20063;-78
2022/05/03 13:03:00;;;;;;;5.13;2.90;;;15.80;76.40;;;;;;5037076;28;20017;-78
2022/05/03 13:05:26;;;;;;;4.47;2.50;;;15.80;76.50;;;;;;5051922;28;20017;-79
2022/05/03 13:07:51;;;;;;;5.43;2.90;;;15.80;76.50;;;;;;5036596;28;20013;-78
2022/05/03 13:10:17;;;;;;;5.07;2.70;;;15.80;76.60;;;;;;5036821;28;20021;-78
2022/05/03 13:12:42;;;;;;;4.85;2.75;;;15.80;76.60;;;;;;5035644;28;20071;-78
2022/05/03 13:15:10;;;;;;;4.40;2.45;;;15.80;76.60;;;;;;5034920;28;20471;-78
2022/05/03 13:17:35;;;;;;;4.18;2.47;;;15.80;76.70;;;;;;5051704;28;20108;-78
2022/05/03 13:20:01;;;;;;;4.88;2.75;;;15.80;76.70;;;;;;5035409;28;20063;-78
2022/05/03 13:22:27;;;;;;;4.35;2.50;;;15.70;76.70;;;;;;5051873;28;20029;-78
2022/05/03 13:24:52;;;;;;;4.40;2.70;;;15.70;76.70;;;;;;5034438;28;20025;-78
2022/05/03 13:27:18;;;;;;;4.93;2.88;;;15.70;76.70;;;;;;5035167;28;20013;-78
2022/05/03 13:29:44;;;;;;;4.90;2.85;;;15.70;76.80;;;;;;5035185;28;20014;-78
2022/05/03 13:32:10;;;;;;;4.60;2.80;;;15.70;76.70;;;;;;5051564;28;20041;-78
2022/05/03 13:34:35;;;;;;;4.90;2.70;;;15.70;76.90;;;;;;5036371;28;20024;-78
2022/05/03 13:42:29;;;;;;;4.95;2.80;;;15.80;76.60;;;;;;5035410;28;20544;-78
2022/05/03 13:44:54;;;;;;;5.65;2.70;;;15.80;76.50;;;;;;5035711;28;20033;-78
2022/05/03 13:47:20;;;;;;;5.68;2.80;;;15.80;76.40;;;;;;5035589;28;20014;-79
2022/05/03 13:49:47;;;;;;;5.57;2.97;;;15.80;76.40;;;;;;5035881;28;20025;-79